createdAt,value
2023-07-04T00:00:32.556Z,99.00
2023-07-04T00:01:35.623Z,105.83
2023-07-04T00:02:38.636Z,127.67
2023-07-04T00:03:44.574Z,221.17
2023-07-04T00:04:49.355Z,265.00
2023-07-04T00:05:54.716Z,209.67
2023-07-04T00:06:57.717Z,147.33
2023-07-04T00:08:00.704Z,115.00
2023-07-04T00:09:06.000Z,110.17
2023-07-04T00:10:10.041Z,98.67
2023-07-04T00:11:13.924Z,81.67
2023-07-04T00:12:16.975Z,84.00
2023-07-04T00:13:20.984Z,81.67
2023-07-04T00:14:24.049Z,73.83
2023-07-04T00:15:27.052Z,61.83
2023-07-04T00:16:30.264Z,55.17
2023-07-04T00:17:33.270Z,57.17
2023-07-04T00:18:37.969Z,56.50
2023-07-04T00:19:41.046Z,60.33
2023-07-04T00:20:44.047Z,59.50
2023-07-04T00:21:47.027Z,57.50
2023-07-04T00:22:50.012Z,57.00
2023-07-04T00:23:55.695Z,52.33
2023-07-04T00:24:58.722Z,53.00
2023-07-04T00:26:05.876Z,52.50
2023-07-04T00:27:08.848Z,53.67
2023-07-04T00:28:11.826Z,57.83
2023-07-04T00:29:14.828Z,58.50
2023-07-04T00:30:17.809Z,53.00
2023-07-04T00:31:25.015Z,56.17
2023-07-04T00:32:28.843Z,69.17
2023-07-04T00:33:34.853Z,81.67
2023-07-04T00:34:37.863Z,83.17
2023-07-04T00:35:41.843Z,86.33
2023-07-04T00:36:44.832Z,99.67
2023-07-04T00:37:47.826Z,110.00
2023-07-04T00:38:57.731Z,114.83
2023-07-04T00:40:07.356Z,106.67
2023-07-04T00:41:14.925Z,100.17
2023-07-04T00:42:17.906Z,99.00
2023-07-04T00:43:20.874Z,99.67
2023-07-04T00:44:25.749Z,102.67
2023-07-04T00:45:28.822Z,103.83
2023-07-04T00:47:12.043Z,100.00
2023-07-04T00:48:17.053Z,93.00
2023-07-04T00:49:27.809Z,93.00
2023-07-04T00:50:36.205Z,93.00
2023-07-04T00:51:39.176Z,93.00
2023-07-04T00:52:43.228Z,94.67
2023-07-04T00:53:46.789Z,95.00
2023-07-04T00:54:54.187Z,97.50
2023-07-04T00:55:59.773Z,98.00
2023-07-04T00:57:07.859Z,98.67
2023-07-04T00:58:11.664Z,100.50
2023-07-04T00:59:15.114Z,101.50
2023-07-04T01:00:26.362Z,102.00
2023-07-04T01:01:29.454Z,102.17
2023-07-04T01:02:35.461Z,102.67
2023-07-04T01:03:38.808Z,103.00
2023-07-04T01:04:43.113Z,103.17
2023-07-04T01:06:36.779Z,100.17
2023-07-04T01:08:04.317Z,97.50
2023-07-04T01:09:09.419Z,99.50
2023-07-04T01:10:45.266Z,101.17
2023-07-04T01:11:50.226Z,122.00
2023-07-04T01:12:53.571Z,134.67
2023-07-04T01:13:57.785Z,133.33
2023-07-04T01:15:01.679Z,125.50
2023-07-04T01:16:10.444Z,127.33
2023-07-04T01:17:13.461Z,140.17
2023-07-04T01:18:16.446Z,134.00
2023-07-04T01:19:29.477Z,132.67
2023-07-04T01:20:33.719Z,130.67
2023-07-04T01:21:38.176Z,132.17
2023-07-04T01:23:02.941Z,132.17
2023-07-04T01:24:20.906Z,130.67
2023-07-04T01:25:31.190Z,123.17
2023-07-04T01:26:41.606Z,122.00
2023-07-04T01:27:45.776Z,122.67
2023-07-04T01:28:52.827Z,129.33
2023-07-04T01:29:56.407Z,141.33
2023-07-04T01:30:59.486Z,147.17
2023-07-04T01:32:02.818Z,155.83
2023-07-04T01:33:07.477Z,162.67
2023-07-04T01:34:12.139Z,173.50
2023-07-04T01:35:15.646Z,173.83
2023-07-04T01:36:23.709Z,170.83
2023-07-04T01:37:30.858Z,165.67
2023-07-04T01:38:33.984Z,163.83
2023-07-04T01:39:36.979Z,161.67
2023-07-04T01:40:39.962Z,161.83
2023-07-04T01:41:46.803Z,162.50
2023-07-04T01:42:50.264Z,164.17
2023-07-04T01:44:11.072Z,163.00
2023-07-04T01:45:14.107Z,159.00
2023-07-04T01:46:17.730Z,157.33
2023-07-04T01:47:20.749Z,157.83
2023-07-04T01:48:23.736Z,168.67
2023-07-04T01:49:26.817Z,175.50
2023-07-04T01:50:29.894Z,178.67
2023-07-04T01:51:37.006Z,184.33
2023-07-04T01:52:42.333Z,190.00
2023-07-04T01:53:45.539Z,187.50
2023-07-04T01:54:48.720Z,187.00
2023-07-04T01:55:51.702Z,185.17
2023-07-04T01:56:54.769Z,184.50
2023-07-04T01:57:59.125Z,187.33
2023-07-04T01:59:02.680Z,187.17
2023-07-04T02:00:14.411Z,187.50
2023-07-04T02:01:17.751Z,189.33
2023-07-04T02:02:20.958Z,187.83
2023-07-04T02:03:24.074Z,189.00
2023-07-04T02:04:27.204Z,186.17
2023-07-04T02:05:30.185Z,180.50
2023-07-04T02:06:33.171Z,180.67
2023-07-04T02:07:36.248Z,178.17
2023-07-04T02:08:39.208Z,177.00
2023-07-04T02:09:44.357Z,177.33
2023-07-04T02:10:47.402Z,181.17
2023-07-04T02:11:50.360Z,187.00
2023-07-04T02:12:53.441Z,190.67
2023-07-04T02:13:57.345Z,197.00
2023-07-04T02:15:00.545Z,206.33
2023-07-04T02:16:03.609Z,207.33
2023-07-04T02:17:06.841Z,213.00
2023-07-04T02:18:09.823Z,244.67
2023-07-04T02:19:12.994Z,271.17
2023-07-04T02:20:17.737Z,266.17
2023-07-04T02:21:20.847Z,246.67
2023-07-04T02:22:23.820Z,226.00
2023-07-04T02:23:26.903Z,194.67
2023-07-04T02:24:29.890Z,180.83
2023-07-04T02:25:32.964Z,175.17
2023-07-04T02:26:36.111Z,183.83
2023-07-04T02:27:39.161Z,185.83
2023-07-04T02:28:42.172Z,189.50
2023-07-04T02:29:50.954Z,187.83
2023-07-04T02:30:59.510Z,188.00
2023-07-04T02:32:02.873Z,189.83
2023-07-04T02:33:06.469Z,189.67
2023-07-04T02:34:09.492Z,188.83
2023-07-04T02:35:15.468Z,181.50
2023-07-04T02:36:19.215Z,171.50
2023-07-04T02:37:22.208Z,176.67
2023-07-04T02:38:25.215Z,177.67
2023-07-04T02:39:30.828Z,172.50
2023-07-04T02:40:33.872Z,172.33
2023-07-04T02:41:36.871Z,180.50
2023-07-04T02:42:39.866Z,193.17
2023-07-04T02:43:42.870Z,206.50
2023-07-04T02:44:45.853Z,222.17
2023-07-04T02:45:48.930Z,224.00
2023-07-04T02:46:51.974Z,257.00
2023-07-04T02:47:55.071Z,306.00
2023-07-04T02:48:58.086Z,294.50
2023-07-04T02:50:01.085Z,290.33
2023-07-04T02:51:04.230Z,316.17
2023-07-04T02:52:07.719Z,323.17
2023-07-04T02:53:10.733Z,332.67
2023-07-04T02:54:13.789Z,321.83
2023-07-04T02:55:19.052Z,326.17
2023-07-04T02:56:22.040Z,330.67
2023-07-04T02:57:25.315Z,330.83
2023-07-04T02:58:28.342Z,329.83
2023-07-04T02:59:31.329Z,330.83
2023-07-04T03:00:35.346Z,337.33
2023-07-04T03:01:38.428Z,335.83
2023-07-04T03:02:42.095Z,338.83
2023-07-04T03:03:45.267Z,336.00
2023-07-04T03:04:52.632Z,330.50
2023-07-04T03:05:57.233Z,328.50
2023-07-04T03:07:00.229Z,328.00
2023-07-04T03:08:04.619Z,326.50
2023-07-04T03:09:07.615Z,325.17
2023-07-04T03:10:11.475Z,323.17
2023-07-04T03:11:14.479Z,322.83
2023-07-04T03:12:17.474Z,317.67
2023-07-04T03:13:20.807Z,297.50
2023-07-04T03:14:26.318Z,269.33
2023-07-04T03:15:29.289Z,251.00
2023-07-04T03:16:32.326Z,245.50
2023-07-04T03:17:35.407Z,241.83
2023-07-04T03:18:38.411Z,254.50
2023-07-04T03:19:41.401Z,245.17
2023-07-04T03:20:44.371Z,220.50
2023-07-04T03:21:47.349Z,193.00
2023-07-04T03:22:50.526Z,182.83
2023-07-04T03:23:53.567Z,181.67
2023-07-04T03:24:56.564Z,180.50
2023-07-04T03:25:59.548Z,171.33
2023-07-04T03:27:02.545Z,170.67
2023-07-04T03:28:05.615Z,156.33
2023-07-04T03:29:08.882Z,162.17
2023-07-04T03:30:13.359Z,157.50
2023-07-04T03:31:16.363Z,157.83
2023-07-04T03:32:19.381Z,156.00
2023-07-04T03:33:22.382Z,150.67
2023-07-04T03:34:25.372Z,150.33
2023-07-04T03:35:28.375Z,136.33
2023-07-04T03:36:31.385Z,134.83
2023-07-04T03:37:36.780Z,138.67
2023-07-04T03:38:39.755Z,130.00
2023-07-04T03:39:42.867Z,139.33
2023-07-04T03:40:46.216Z,143.17
2023-07-04T03:41:49.237Z,143.83
2023-07-04T03:42:52.271Z,145.83
2023-07-04T03:43:55.260Z,149.67
2023-07-04T03:44:58.236Z,181.33
2023-07-04T03:46:01.230Z,218.33
2023-07-04T03:47:04.537Z,223.00
2023-07-04T03:48:07.666Z,213.00
2023-07-04T03:49:10.733Z,262.67
2023-07-04T03:50:14.492Z,382.33
2023-07-04T03:51:17.827Z,404.00
2023-07-04T03:52:20.813Z,410.00
2023-07-04T03:53:23.796Z,413.50
2023-07-04T03:54:26.789Z,412.50
2023-07-04T03:55:29.905Z,418.67
2023-07-04T03:56:32.900Z,422.33
2023-07-04T03:57:35.959Z,425.17
2023-07-04T03:58:38.939Z,424.67
2023-07-04T03:59:42.096Z,427.17
2023-07-04T04:00:48.933Z,425.33
2023-07-04T04:01:51.952Z,420.67
2023-07-04T04:02:55.327Z,420.17
2023-07-04T04:03:58.558Z,420.67
2023-07-04T04:05:01.775Z,418.17
2023-07-04T04:06:07.668Z,416.50
2023-07-04T04:07:12.298Z,416.67
2023-07-04T04:08:15.288Z,411.50
2023-07-04T04:09:18.278Z,406.67
2023-07-04T04:10:21.772Z,400.33
2023-07-04T04:11:24.902Z,352.83
2023-07-04T04:12:27.881Z,323.17
2023-07-04T04:13:30.997Z,289.17
2023-07-04T04:14:35.622Z,274.17
2023-07-04T04:15:38.610Z,266.00
2023-07-04T04:16:41.644Z,266.50
2023-07-04T04:17:44.717Z,279.83
2023-07-04T04:18:47.802Z,308.00
2023-07-04T04:19:50.797Z,315.50
2023-07-04T04:20:54.112Z,324.17
2023-07-04T04:21:57.551Z,377.83
2023-07-04T04:23:01.298Z,390.17
2023-07-04T04:24:04.287Z,377.00
2023-07-04T04:25:07.940Z,361.50
2023-07-04T04:26:15.986Z,358.50
2023-07-04T04:27:20.245Z,356.67
2023-07-04T04:28:23.233Z,356.17
2023-07-04T04:29:26.243Z,354.83
2023-07-04T04:30:29.329Z,346.67
2023-07-04T04:31:38.333Z,337.33
2023-07-04T04:32:42.790Z,322.50
2023-07-04T04:33:45.846Z,320.50
2023-07-04T04:34:49.115Z,324.67
2023-07-04T04:35:52.272Z,309.00
2023-07-04T04:36:55.254Z,298.50
2023-07-04T04:37:58.799Z,285.83
2023-07-04T04:39:03.386Z,281.00
2023-07-04T04:40:08.064Z,291.67
2023-07-04T04:41:11.297Z,280.33
2023-07-04T04:42:16.970Z,269.33
2023-07-04T04:43:19.960Z,270.17
2023-07-04T04:44:23.035Z,273.83
2023-07-04T04:45:26.130Z,266.33
2023-07-04T04:46:29.399Z,253.33
2023-07-04T04:47:34.563Z,251.67
2023-07-04T04:48:38.105Z,266.00
2023-07-04T04:49:41.445Z,271.67
2023-07-04T04:50:47.546Z,280.50
2023-07-04T04:51:53.332Z,301.83
2023-07-04T04:52:59.313Z,307.50
2023-07-04T04:54:03.601Z,297.83
2023-07-04T04:55:08.665Z,263.50
2023-07-04T04:56:13.680Z,237.33
2023-07-04T04:57:17.378Z,234.83
2023-07-04T04:58:20.727Z,232.83
2023-07-04T04:59:23.740Z,229.33
2023-07-04T05:00:26.747Z,223.50
2023-07-04T05:01:29.735Z,216.33
2023-07-04T05:02:33.235Z,230.00
2023-07-04T05:03:36.281Z,231.83
2023-07-04T05:04:39.449Z,230.67
2023-07-04T05:05:42.433Z,227.50
2023-07-04T05:06:45.411Z,233.50
2023-07-04T05:07:50.805Z,230.50
2023-07-04T05:08:54.528Z,222.33
2023-07-04T05:10:01.984Z,225.83
2023-07-04T05:11:09.472Z,229.17
2023-07-04T05:12:12.450Z,232.33
2023-07-04T05:13:15.423Z,249.17
2023-07-04T05:14:18.407Z,252.83
2023-07-04T05:15:21.387Z,252.17
2023-07-04T05:16:24.416Z,246.83
2023-07-04T05:17:28.015Z,242.33
2023-07-04T05:18:33.677Z,240.17
2023-07-04T05:19:36.781Z,230.83
2023-07-04T05:20:39.772Z,221.00
2023-07-04T05:21:42.754Z,223.33
2023-07-04T05:22:46.545Z,219.00
2023-07-04T05:23:51.307Z,219.00
2023-07-04T05:24:54.306Z,209.00
2023-07-04T05:26:06.519Z,202.67
2023-07-04T05:27:09.835Z,199.67
2023-07-04T05:28:12.819Z,204.67
2023-07-04T05:29:15.793Z,201.17
2023-07-04T05:30:20.864Z,202.67
2023-07-04T05:31:30.655Z,195.50
2023-07-04T05:32:33.726Z,196.83
2023-07-04T05:33:37.582Z,201.17
2023-07-04T05:34:40.562Z,203.33
2023-07-04T05:35:43.544Z,209.83
2023-07-04T05:36:46.526Z,228.33
2023-07-04T05:37:49.516Z,253.83
2023-07-04T05:38:54.794Z,260.17
2023-07-04T05:39:58.289Z,271.50
2023-07-04T05:41:01.875Z,260.50
2023-07-04T05:42:05.280Z,251.00
2023-07-04T05:43:08.361Z,248.83
2023-07-04T05:44:13.000Z,248.00
2023-07-04T05:45:16.054Z,247.17
2023-07-04T05:46:19.793Z,241.67
2023-07-04T05:47:22.830Z,229.00
2023-07-04T05:48:25.837Z,220.17
2023-07-04T05:49:28.826Z,213.17
2023-07-04T05:50:31.566Z,215.50
2023-07-04T05:51:34.404Z,219.00
2023-07-04T05:52:37.382Z,220.17
2023-07-04T05:53:42.809Z,221.67
2023-07-04T05:54:49.561Z,221.33
2023-07-04T05:55:53.460Z,223.17
2023-07-04T05:56:59.281Z,228.67
2023-07-04T05:58:02.270Z,236.00
2023-07-04T05:59:05.273Z,239.00
2023-07-04T06:00:10.671Z,234.67
2023-07-04T06:01:42.204Z,217.50
2023-07-04T06:02:49.753Z,214.83
2023-07-04T06:03:54.416Z,201.00
2023-07-04T06:04:57.587Z,194.33
2023-07-04T06:06:02.940Z,203.00
2023-07-04T06:07:06.516Z,200.00
2023-07-04T06:08:09.849Z,189.50
2023-07-04T06:09:16.223Z,186.00
2023-07-04T06:10:19.273Z,183.83
2023-07-04T06:11:25.792Z,190.33
2023-07-04T06:12:28.778Z,191.50
2023-07-04T06:13:32.712Z,191.50
2023-07-04T06:14:35.834Z,193.50
2023-07-04T06:15:42.285Z,194.17
2023-07-04T06:16:45.419Z,195.33
2023-07-04T06:17:48.492Z,196.00
2023-07-04T06:18:52.096Z,196.17
2023-07-04T06:19:55.100Z,196.83
2023-07-04T06:21:18.594Z,196.50
2023-07-04T06:22:23.391Z,203.50
2023-07-04T06:23:26.406Z,208.67
2023-07-04T06:24:29.415Z,209.33
2023-07-04T06:25:32.416Z,208.00
2023-07-04T06:26:35.440Z,208.00
2023-07-04T06:27:38.641Z,208.00
2023-07-04T06:28:43.214Z,207.67
2023-07-04T06:29:48.931Z,208.67
2023-07-04T06:30:52.157Z,209.83
2023-07-04T06:31:55.325Z,212.67
2023-07-04T06:32:58.735Z,216.67
2023-07-04T06:34:02.146Z,216.50
2023-07-04T06:35:06.142Z,221.50
2023-07-04T06:36:15.187Z,227.00
2023-07-04T06:37:19.078Z,227.17
2023-07-04T06:38:23.234Z,226.33
2023-07-04T06:39:26.228Z,228.33
2023-07-04T06:40:29.249Z,232.67
2023-07-04T06:41:32.417Z,231.00
2023-07-04T06:42:35.418Z,229.17
2023-07-04T06:43:47.293Z,227.67
2023-07-04T06:44:50.333Z,228.33
2023-07-04T06:45:53.696Z,229.17
2023-07-04T06:46:56.957Z,229.50
2023-07-04T06:48:00.741Z,232.67
2023-07-04T06:49:03.734Z,233.00
2023-07-04T06:50:07.865Z,233.33
2023-07-04T06:51:13.597Z,232.33
2023-07-04T06:52:16.721Z,231.17
2023-07-04T06:53:20.412Z,230.33
2023-07-04T06:54:24.441Z,228.67
2023-07-04T06:55:27.440Z,228.83
2023-07-04T06:56:32.386Z,217.33
2023-07-04T06:57:35.509Z,190.33
2023-07-04T06:58:56.260Z,192.50
2023-07-04T06:59:59.506Z,195.17
2023-07-04T07:01:06.236Z,183.83
2023-07-04T07:02:09.272Z,181.17
2023-07-04T07:03:12.314Z,183.33
2023-07-04T07:04:17.300Z,183.67
2023-07-04T07:05:20.310Z,183.50
2023-07-04T07:06:23.600Z,186.83
2023-07-04T07:07:26.976Z,188.17
2023-07-04T07:08:30.563Z,186.50
2023-07-04T07:09:38.157Z,174.67
2023-07-04T07:10:41.161Z,155.50
2023-07-04T07:11:44.143Z,155.50
2023-07-04T07:12:47.125Z,142.83
2023-07-04T07:13:51.597Z,151.83
2023-07-04T07:14:54.673Z,144.83
2023-07-04T07:16:17.747Z,149.33
2023-07-04T07:17:20.874Z,158.50
2023-07-04T07:18:23.982Z,160.50
2023-07-04T07:19:27.392Z,155.33
2023-07-04T07:20:30.521Z,157.50
2023-07-04T07:21:33.546Z,163.67
2023-07-04T07:22:36.554Z,178.67
2023-07-04T07:23:41.670Z,178.17
2023-07-04T07:24:45.709Z,176.33
2023-07-04T07:25:58.681Z,169.67
2023-07-04T07:27:02.137Z,150.00
2023-07-04T07:28:06.114Z,152.17
2023-07-04T07:29:10.168Z,154.17
2023-07-04T07:30:13.791Z,136.00
2023-07-04T07:31:32.573Z,120.33
2023-07-04T07:32:37.213Z,124.50
2023-07-04T07:33:42.477Z,132.33
2023-07-04T07:34:45.479Z,137.00
2023-07-04T07:35:51.110Z,141.00
2023-07-04T07:36:54.262Z,142.50
2023-07-04T07:37:57.253Z,133.00
2023-07-04T07:39:04.093Z,127.50
2023-07-04T07:40:08.034Z,128.17
2023-07-04T07:41:11.413Z,129.83
2023-07-04T07:42:14.501Z,128.83
2023-07-04T07:43:17.503Z,129.67
2023-07-04T07:44:20.891Z,126.00
2023-07-04T07:45:24.372Z,125.50
2023-07-04T07:46:28.067Z,136.50
2023-07-04T07:47:31.110Z,141.67
2023-07-04T07:48:34.265Z,103.50
2023-07-04T07:49:38.436Z,84.33
2023-07-04T07:50:43.067Z,81.50
2023-07-04T07:51:46.514Z,87.50
2023-07-04T07:52:49.488Z,101.17
2023-07-04T07:53:54.676Z,120.00
2023-07-04T07:54:57.686Z,134.67
2023-07-04T07:56:00.759Z,147.17
2023-07-04T07:57:03.845Z,156.33
2023-07-04T07:58:06.975Z,169.00
2023-07-04T07:59:10.058Z,168.67
2023-07-04T08:00:13.988Z,160.00
2023-07-04T08:01:20.203Z,174.33
2023-07-04T08:02:23.417Z,174.17
2023-07-04T08:03:28.174Z,168.17
2023-07-04T08:04:31.324Z,174.17
2023-07-04T08:05:41.053Z,183.17
2023-07-04T08:06:46.682Z,180.50
2023-07-04T08:07:49.678Z,188.00
2023-07-04T08:08:54.552Z,182.00
2023-07-04T08:09:57.872Z,187.67
2023-07-04T08:11:00.901Z,204.33
2023-07-04T08:12:05.677Z,200.83
2023-07-04T08:13:11.539Z,189.67
2023-07-04T08:14:15.595Z,186.33
2023-07-04T08:15:18.673Z,187.00
2023-07-04T08:16:26.771Z,196.83
2023-07-04T08:17:29.846Z,205.17
2023-07-04T08:18:32.848Z,197.00
2023-07-04T08:19:35.821Z,196.17
2023-07-04T08:20:38.933Z,196.67
2023-07-04T08:21:41.925Z,195.17
2023-07-04T08:22:44.917Z,193.50
2023-07-04T08:23:48.963Z,184.67
2023-07-04T08:24:51.954Z,181.67
2023-07-04T08:25:54.988Z,170.83
2023-07-04T08:26:59.741Z,143.33
2023-07-04T08:28:02.745Z,145.33
2023-07-04T08:29:08.060Z,139.00
2023-07-04T08:30:11.381Z,136.67
2023-07-04T08:31:16.761Z,132.17
2023-07-04T08:32:19.943Z,131.17
2023-07-04T08:33:23.005Z,135.67
2023-07-04T08:34:26.299Z,133.83
2023-07-04T08:35:29.295Z,134.33
2023-07-04T08:36:33.963Z,138.50
2023-07-04T08:37:36.972Z,137.33
2023-07-04T08:38:40.250Z,139.33
2023-07-04T08:39:47.234Z,139.83
2023-07-04T08:40:51.550Z,124.17
2023-07-04T08:42:03.803Z,118.50
2023-07-04T08:43:07.515Z,120.00
2023-07-04T08:44:33.602Z,101.17
2023-07-04T08:45:36.998Z,93.00
2023-07-04T08:46:50.704Z,98.83
2023-07-04T08:47:56.870Z,107.83
2023-07-04T08:49:00.758Z,115.50
2023-07-04T08:50:13.944Z,133.00
2023-07-04T08:51:35.541Z,139.50
2023-07-04T08:52:55.556Z,148.67
2023-07-04T08:54:04.422Z,144.83
2023-07-04T08:55:14.726Z,170.00
2023-07-04T08:56:32.805Z,137.33
2023-07-04T08:57:53.730Z,110.50
2023-07-04T08:59:22.993Z,113.83
2023-07-04T09:00:38.486Z,158.83
2023-07-04T09:01:55.006Z,181.50
2023-07-04T09:03:34.949Z,206.83
2023-07-04T09:04:53.409Z,244.67
2023-07-04T09:06:31.900Z,220.33
2023-07-04T09:08:14.970Z,197.33
2023-07-04T09:09:23.955Z,188.17
2023-07-04T09:10:51.419Z,139.33
2023-07-04T09:11:55.017Z,111.17
2023-07-04T09:12:58.090Z,118.83
2023-07-04T09:14:09.727Z,119.33
2023-07-04T09:15:26.028Z,124.33
2023-07-04T09:16:45.177Z,137.50
2023-07-04T09:18:21.256Z,171.50
2023-07-04T09:19:25.629Z,186.00
2023-07-04T09:20:32.994Z,179.67
2023-07-04T09:21:38.121Z,176.83
2023-07-04T09:22:41.191Z,173.33
2023-07-04T09:23:48.467Z,173.50
2023-07-04T09:24:51.692Z,177.67
2023-07-04T09:25:57.607Z,180.33
2023-07-04T09:27:01.895Z,167.00
2023-07-04T09:28:06.347Z,144.33
2023-07-04T09:29:09.680Z,148.50
2023-07-04T09:30:14.159Z,156.00
2023-07-04T09:31:35.025Z,162.50
2023-07-04T09:32:38.204Z,162.33
2023-07-04T09:33:42.658Z,156.00
2023-07-04T09:34:51.493Z,154.50
2023-07-04T09:35:58.022Z,157.67
2023-07-04T09:37:17.341Z,159.67
2023-07-04T09:38:20.377Z,166.33
2023-07-04T09:39:23.641Z,170.50
2023-07-04T09:40:41.946Z,172.50
2023-07-04T09:42:13.253Z,184.17
2023-07-04T09:43:33.701Z,178.67
2023-07-04T09:44:38.488Z,177.33
2023-07-04T09:45:42.121Z,175.50
2023-07-04T09:46:53.364Z,180.00
2023-07-04T09:47:56.373Z,189.33
2023-07-04T09:49:37.388Z,180.67
2023-07-04T09:50:40.373Z,159.67
2023-07-04T09:51:43.419Z,161.00
2023-07-04T09:52:46.394Z,154.83
2023-07-04T09:53:49.582Z,154.50
2023-07-04T09:55:18.356Z,155.33
2023-07-04T09:56:28.171Z,157.00
2023-07-04T09:57:31.372Z,160.00
2023-07-04T09:58:35.621Z,178.33
2023-07-04T09:59:38.934Z,218.33
2023-07-04T10:00:42.104Z,215.50
2023-07-04T10:01:54.759Z,206.83
2023-07-04T10:03:06.207Z,199.00
2023-07-04T10:04:12.533Z,194.00
2023-07-04T10:05:27.004Z,185.67
2023-07-04T10:06:34.696Z,170.83
2023-07-04T10:07:38.917Z,162.17
2023-07-04T10:08:54.960Z,164.17
2023-07-04T10:10:04.943Z,166.50
2023-07-04T10:11:08.124Z,168.83
2023-07-04T10:12:14.973Z,167.67
2023-07-04T10:13:23.791Z,166.50
2023-07-04T10:14:38.741Z,167.00
2023-07-04T10:15:45.408Z,169.33
2023-07-04T10:16:52.311Z,177.50
2023-07-04T10:17:55.405Z,176.00
2023-07-04T10:19:20.109Z,166.17
2023-07-04T10:20:23.209Z,165.33
2023-07-04T10:21:26.274Z,163.33
2023-07-04T10:22:42.320Z,161.00
2023-07-04T10:23:47.170Z,154.83
2023-07-04T10:24:51.237Z,156.00
2023-07-04T10:25:57.342Z,157.83
2023-07-04T10:27:06.360Z,159.83
2023-07-04T10:28:18.539Z,155.50
2023-07-04T10:29:48.034Z,155.17
2023-07-04T10:31:01.087Z,147.67
2023-07-04T10:32:14.791Z,150.83
2023-07-04T10:33:29.794Z,148.17
2023-07-04T10:34:36.208Z,149.67
2023-07-04T10:35:46.739Z,149.17
2023-07-04T10:36:52.119Z,142.50
2023-07-04T10:38:35.268Z,143.67
2023-07-04T10:39:39.838Z,146.83
2023-07-04T10:40:43.834Z,147.83
2023-07-04T10:41:57.105Z,151.50
2023-07-04T10:43:12.051Z,154.00
2023-07-04T10:44:22.628Z,156.00
2023-07-04T10:45:28.355Z,158.17
2023-07-04T10:46:42.723Z,162.17
2023-07-04T10:47:49.457Z,148.17
2023-07-04T10:49:03.495Z,148.00
2023-07-04T10:50:33.927Z,149.50
2023-07-04T10:51:42.400Z,163.00
2023-07-04T10:52:50.009Z,168.00
2023-07-04T10:53:53.492Z,149.83
2023-07-04T10:54:56.544Z,128.67
2023-07-04T10:56:16.354Z,107.50
2023-07-04T10:57:48.688Z,92.50
2023-07-04T10:59:04.292Z,107.83
2023-07-04T11:00:25.066Z,110.67
2023-07-04T11:01:36.810Z,117.17
2023-07-04T11:02:52.868Z,125.33
2023-07-04T11:04:11.344Z,122.83
2023-07-04T11:05:41.480Z,117.17
2023-07-04T11:06:57.125Z,121.83
2023-07-04T11:08:01.224Z,125.83
2023-07-04T11:09:07.008Z,127.83
2023-07-04T11:10:14.656Z,122.83
2023-07-04T11:11:30.726Z,114.00
2023-07-04T11:12:38.707Z,114.33
2023-07-04T11:13:50.290Z,112.00
2023-07-04T11:15:04.046Z,102.00
2023-07-04T11:16:09.136Z,97.83
2023-07-04T11:17:18.103Z,97.67
2023-07-04T11:18:27.406Z,85.83
2023-07-04T11:19:35.436Z,86.17
2023-07-04T11:20:41.650Z,94.17
2023-07-04T11:22:06.860Z,97.83
2023-07-04T11:23:23.285Z,101.50
2023-07-04T11:24:26.850Z,75.83
2023-07-04T11:25:50.490Z,82.17
2023-07-04T11:27:36.363Z,92.67
2023-07-04T11:28:39.432Z,141.33
2023-07-04T11:29:58.739Z,115.50
2023-07-04T11:31:32.295Z,70.17
2023-07-04T11:32:42.151Z,45.67
2023-07-04T11:33:53.941Z,39.83
2023-07-04T11:35:17.005Z,56.67
2023-07-04T11:36:54.428Z,68.33
2023-07-04T11:38:16.734Z,69.17
2023-07-04T11:39:31.496Z,101.00
2023-07-04T11:40:47.234Z,118.67
2023-07-04T11:41:51.133Z,100.83
2023-07-04T11:43:00.450Z,86.17
2023-07-04T11:44:32.338Z,66.83
2023-07-04T11:45:40.919Z,58.50
2023-07-04T11:46:45.321Z,58.00
2023-07-04T11:48:09.826Z,59.50
2023-07-04T11:49:21.876Z,48.50
2023-07-04T11:50:42.246Z,50.17
2023-07-04T11:51:46.285Z,51.83
2023-07-04T11:53:00.463Z,54.33
2023-07-04T11:54:08.463Z,55.83
2023-07-04T11:55:18.108Z,56.33
2023-07-04T11:56:28.097Z,62.50
2023-07-04T11:58:18.187Z,64.50
2023-07-04T11:59:22.728Z,66.83
2023-07-04T12:00:45.645Z,87.33
2023-07-04T12:01:58.132Z,79.83
2023-07-04T12:05:40.343Z,31.67
2023-07-04T12:07:05.242Z,56.83
2023-07-04T12:08:32.532Z,90.33
2023-07-04T12:10:27.041Z,80.83
2023-07-04T12:11:44.254Z,104.50
2023-07-04T12:12:58.884Z,101.17
2023-07-04T12:14:02.108Z,84.50
2023-07-04T12:15:15.183Z,110.00
2023-07-04T12:16:23.379Z,106.67
2023-07-04T12:17:26.405Z,91.83
2023-07-04T12:18:35.481Z,105.00
2023-07-04T12:19:38.490Z,100.17
2023-07-04T12:20:42.070Z,113.67
2023-07-04T12:21:48.811Z,103.50
2023-07-04T12:22:55.054Z,103.67
2023-07-04T12:23:58.036Z,97.67
2023-07-04T12:25:23.397Z,100.67
2023-07-04T12:26:31.767Z,108.33
2023-07-04T12:27:34.777Z,106.67
2023-07-04T12:28:38.040Z,119.17
2023-07-04T12:31:41.431Z,110.83
2023-07-04T12:32:25.876Z,80.67
2023-07-04T12:33:32.328Z,75.67
2023-07-04T12:35:11.150Z,104.50
2023-07-04T12:36:10.981Z,104.67
2023-07-04T12:37:20.841Z,91.33
2023-07-04T12:38:28.377Z,99.50
2023-07-04T12:39:31.673Z,109.50
2023-07-04T12:40:35.509Z,99.50
2023-07-04T12:41:41.430Z,98.67
2023-07-04T12:42:46.128Z,110.00
2023-07-04T12:45:17.184Z,109.67
2023-07-04T12:47:36.960Z,115.50
2023-07-04T12:49:48.545Z,91.33
2023-07-04T12:50:54.480Z,91.50
2023-07-04T12:51:57.667Z,94.17
2023-07-04T12:53:02.391Z,99.83
2023-07-04T12:54:09.338Z,87.00
2023-07-04T12:55:37.047Z,61.83
2023-07-04T12:56:45.872Z,144.50
2023-07-04T12:57:50.868Z,220.67
2023-07-04T12:58:53.851Z,164.33
2023-07-04T13:00:31.630Z,141.00
2023-07-04T13:01:36.720Z,99.17
2023-07-04T13:02:40.113Z,183.33
2023-07-04T13:03:45.266Z,275.00
2023-07-04T13:04:48.385Z,314.00
2023-07-04T13:05:53.792Z,333.83
2023-07-04T13:06:57.582Z,334.50
2023-07-04T13:08:00.605Z,295.67
2023-07-04T13:09:07.066Z,300.83
2023-07-04T13:10:11.789Z,284.33
2023-07-04T13:11:14.835Z,269.33
2023-07-04T13:12:30.550Z,227.67
2023-07-04T13:13:47.222Z,180.67
2023-07-04T13:14:50.249Z,194.33
2023-07-04T13:16:19.662Z,183.50
2023-07-04T13:17:23.470Z,186.17
2023-07-04T13:18:35.477Z,155.00
2023-07-04T13:19:45.181Z,157.17
2023-07-04T13:20:59.455Z,162.67
2023-07-04T13:22:15.654Z,137.50
2023-07-04T13:25:42.703Z,151.50
2023-07-04T13:26:47.501Z,175.50
2023-07-04T13:30:21.223Z,193.67
2023-07-04T13:30:38.936Z,201.33
2023-07-04T13:32:59.875Z,211.50
2023-07-04T13:34:23.429Z,229.67
2023-07-04T13:35:40.803Z,203.83
2023-07-04T13:36:53.244Z,198.00
2023-07-04T13:39:49.751Z,255.50
2023-07-04T13:40:28.164Z,252.67
2023-07-04T13:41:31.593Z,277.17
2023-07-04T13:42:34.576Z,249.17
2023-07-04T13:45:53.997Z,219.17
2023-07-04T13:46:56.992Z,211.50
2023-07-04T13:48:00.059Z,210.17
2023-07-04T13:49:03.090Z,202.17
2023-07-04T13:50:08.041Z,202.00
2023-07-04T13:51:11.521Z,205.50
2023-07-04T13:52:14.515Z,201.17
2023-07-04T13:53:17.538Z,210.00
2023-07-04T13:54:20.531Z,273.83
2023-07-04T13:55:23.594Z,297.67
2023-07-04T13:56:27.469Z,299.67
2023-07-04T13:57:30.427Z,318.50
2023-07-04T13:58:35.229Z,344.50
2023-07-04T13:59:38.207Z,318.67
2023-07-04T14:06:12.661Z,250.00
2023-07-04T14:07:15.785Z,232.00
2023-07-04T14:08:18.801Z,217.17
2023-07-04T14:09:23.029Z,226.50
2023-07-04T14:10:34.252Z,261.83
2023-07-04T14:11:37.831Z,271.67
2023-07-04T14:12:41.114Z,271.17
2023-07-04T14:13:44.846Z,259.83
2023-07-04T14:20:24.882Z,208.83
2023-07-04T14:21:28.021Z,194.17
2023-07-04T14:22:31.439Z,205.17
2023-07-04T14:23:34.977Z,186.50
2023-07-04T14:24:37.969Z,176.00
2023-07-04T14:25:40.950Z,175.17
2023-07-04T14:26:46.007Z,254.33